KMRT

Details ICAO KMRT
Name UNION CO
Region United States
Timezone America/New_York (UTC-4.0)
Plans Departing 9
Arriving 2
Stats Elevation 1,021 ft / 311 m (AMSL)
Location 40.224680° -83.351604°
Runways 1
Magnetic Variation 6.924° W
Sunrise 2018-05-21 10:13:56 UTC / 2018-05-21 06:13:56 Local
Sunset 2018-05-22 00:48:56 UTC / 2018-05-21 20:48:56 Local
Advertisement - Login to hide

Runways

ID Width Length Bearing (true) Bearing (mag) Surface Threshold Offset Overrun Length
09 75 ft / 23 m 4,209 ft / 1,283 m 82.97° 89.89° Asphalt 0 ft / 0 m 0 ft / 0 m
27 75 ft / 23 m 4,209 ft / 1,283 m 262.98° 269.90° Asphalt 124 ft / 38 m 0 ft / 0 m

Map

Weather


0- 5 10 15 20 25 30 35+ Temperature / ° C

Clouds and Precipitation
Forecast for 2018-05-21 18:00 UTC. Updated 36 minutes ago

Ground ~20,000 ft ~40,000 ft Winds

METAR

KMRT 211535Z AUTO 15003KT 10SM CLR 22/16 A3018 RMK AO2 T02180155

TAF

Not found

Frequencies

Recorded 119.27 MHz AWOS 3
Approach 120.20 MHz COLUMBUS APP/DEP
Unicom 122.80 MHz CTAF/UNICOM
Warning: Do not use this data for real-world aviation or navigation. No guarantee of current accuracy is given.